sensor_id;sensor_type;location;lat;lon;timestamp;P1;durP1;ratioP1;P2;durP2;ratioP2
1879;SDS011;49285;49.002;8.390;2023-04-20T00:00:14;6.17;;;5.57;;
1879;SDS011;49285;49.002;8.390;2023-04-20T00:02:41;6.97;;;5.80;;
1879;SDS011;49285;49.002;8.390;2023-04-20T00:05:08;5.77;;;4.90;;
1879;SDS011;49285;49.002;8.390;2023-04-20T00:07:34;9.00;;;5.90;;
1879;SDS011;49285;49.002;8.390;2023-04-20T00:10:00;8.10;;;5.00;;
1879;SDS011;49285;49.002;8.390;2023-04-20T00:12:27;7.47;;;5.00;;
1879;SDS011;49285;49.002;8.390;2023-04-20T00:14:53;6.07;;;5.47;;
1879;SDS011;49285;49.002;8.390;2023-04-20T00:17:19;6.77;;;5.80;;
1879;SDS011;49285;49.002;8.390;2023-04-20T00:19:45;8.80;;;6.10;;
1879;SDS011;49285;49.002;8.390;2023-04-20T00:22:11;6.50;;;5.70;;
1879;SDS011;49285;49.002;8.390;2023-04-20T00:24:37;7.77;;;5.63;;
1879;SDS011;49285;49.002;8.390;2023-04-20T00:27:02;7.53;;;5.60;;
1879;SDS011;49285;49.002;8.390;2023-04-20T00:29:28;6.60;;;5.37;;
1879;SDS011;49285;49.002;8.390;2023-04-20T00:31:54;6.17;;;5.57;;
1879;SDS011;49285;49.002;8.390;2023-04-20T00:34:19;7.80;;;5.80;;
1879;SDS011;49285;49.002;8.390;2023-04-20T00:36:45;7.40;;;5.50;;
1879;SDS011;49285;49.002;8.390;2023-04-20T00:39:11;6.80;;;6.10;;
1879;SDS011;49285;49.002;8.390;2023-04-20T00:41:36;7.33;;;5.43;;
1879;SDS011;49285;49.002;8.390;2023-04-20T00:44:02;7.63;;;5.70;;
1879;SDS011;49285;49.002;8.390;2023-04-20T00:46:32;6.50;;;5.53;;
1879;SDS011;49285;49.002;8.390;2023-04-20T00:48:58;7.63;;;5.70;;
1879;SDS011;49285;49.002;8.390;2023-04-20T00:51:24;6.70;;;4.80;;
1879;SDS011;49285;49.002;8.390;2023-04-20T00:53:50;7.50;;;5.93;;
1879;SDS011;49285;49.002;8.390;2023-04-20T00:56:15;6.80;;;5.37;;
1879;SDS011;49285;49.002;8.390;2023-04-20T00:58:41;7.50;;;6.00;;
1879;SDS011;49285;49.002;8.390;2023-04-20T01:01:11;5.80;;;5.30;;
1879;SDS011;49285;49.002;8.390;2023-04-20T01:03:37;6.10;;;5.50;;
1879;SDS011;49285;49.002;8.390;2023-04-20T01:06:03;8.60;;;5.93;;
1879;SDS011;49285;49.002;8.390;2023-04-20T01:08:30;6.13;;;5.50;;
1879;SDS011;49285;49.002;8.390;2023-04-20T01:10:56;6.73;;;5.80;;
1879;SDS011;49285;49.002;8.390;2023-04-20T01:13:21;7.73;;;5.70;;
1879;SDS011;49285;49.002;8.390;2023-04-20T01:15:47;6.60;;;5.90;;
1879;SDS011;49285;49.002;8.390;2023-04-20T01:18:13;8.33;;;5.23;;
1879;SDS011;49285;49.002;8.390;2023-04-20T01:20:39;9.73;;;5.90;;
1879;SDS011;49285;49.002;8.390;2023-04-20T01:23:05;6.53;;;5.00;;
1879;SDS011;49285;49.002;8.390;2023-04-20T01:25:30;7.60;;;6.00;;
1879;SDS011;49285;49.002;8.390;2023-04-20T01:27:56;6.97;;;5.87;;
1879;SDS011;49285;49.002;8.390;2023-04-20T01:30:21;6.77;;;5.60;;
1879;SDS011;49285;49.002;8.390;2023-04-20T01:32:47;6.80;;;5.03;;
1879;SDS011;49285;49.002;8.390;2023-04-20T01:35:13;5.60;;;5.10;;
1879;SDS011;49285;49.002;8.390;2023-04-20T01:37:39;8.70;;;5.60;;
1879;SDS011;49285;49.002;8.390;2023-04-20T01:40:09;5.40;;;4.90;;
1879;SDS011;49285;49.002;8.390;2023-04-20T01:42:36;5.83;;;4.70;;
1879;SDS011;49285;49.002;8.390;2023-04-20T01:45:03;7.30;;;5.43;;
1879;SDS011;49285;49.002;8.390;2023-04-20T01:47:30;6.90;;;5.27;;
1879;SDS011;49285;49.002;8.390;2023-04-20T01:49:55;7.37;;;5.40;;
1879;SDS011;49285;49.002;8.390;2023-04-20T01:52:21;5.27;;;4.77;;
1879;SDS011;49285;49.002;8.390;2023-04-20T01:54:46;7.27;;;5.43;;
1879;SDS011;49285;49.002;8.390;2023-04-20T01:57:12;8.77;;;5.20;;
1879;SDS011;49285;49.002;8.390;2023-04-20T01:59:37;6.50;;;5.90;;
1879;SDS011;49285;49.002;8.390;2023-04-20T02:02:03;9.73;;;5.50;;
1879;SDS011;49285;49.002;8.390;2023-04-20T02:04:28;5.87;;;5.27;;
1879;SDS011;49285;49.002;8.390;2023-04-20T02:06:54;5.77;;;5.13;;
1879;SDS011;49285;49.002;8.390;2023-04-20T02:09:20;7.90;;;5.53;;
1879;SDS011;49285;49.002;8.390;2023-04-20T02:11:46;6.20;;;5.37;;
1879;SDS011;49285;49.002;8.390;2023-04-20T02:14:11;8.60;;;6.30;;
1879;SDS011;49285;49.002;8.390;2023-04-20T02:16:37;6.70;;;5.07;;
1879;SDS011;49285;49.002;8.390;2023-04-20T02:19:02;6.10;;;5.60;;
1879;SDS011;49285;49.002;8.390;2023-04-20T02:21:28;6.07;;;5.47;;
1879;SDS011;49285;49.002;8.390;2023-04-20T02:23:53;6.67;;;5.50;;
1879;SDS011;49285;49.002;8.390;2023-04-20T02:26:19;7.93;;;5.57;;
1879;SDS011;49285;49.002;8.390;2023-04-20T02:28:45;11.47;;;6.20;;
1879;SDS011;49285;49.002;8.390;2023-04-20T02:31:10;6.80;;;6.10;;
1879;SDS011;49285;49.002;8.390;2023-04-20T02:33:36;8.37;;;5.70;;
1879;SDS011;49285;49.002;8.390;2023-04-20T02:36:02;6.80;;;6.10;;
1879;SDS011;49285;49.002;8.390;2023-04-20T02:38:28;6.07;;;5.47;;
1879;SDS011;49285;49.002;8.390;2023-04-20T02:40:54;6.87;;;6.03;;
1879;SDS011;49285;49.002;8.390;2023-04-20T02:43:19;9.23;;;6.23;;
1879;SDS011;49285;49.002;8.390;2023-04-20T02:45:45;6.13;;;5.47;;
1879;SDS011;49285;49.002;8.390;2023-04-20T02:48:10;7.37;;;5.90;;
1879;SDS011;49285;49.002;8.390;2023-04-20T02:50:37;6.90;;;6.20;;
1879;SDS011;49285;49.002;8.390;2023-04-20T02:53:02;10.83;;;6.47;;
1879;SDS011;49285;49.002;8.390;2023-04-20T02:55:28;6.83;;;5.70;;
1879;SDS011;49285;49.002;8.390;2023-04-20T02:57:54;10.10;;;6.43;;
1879;SDS011;49285;49.002;8.390;2023-04-20T03:00:19;12.20;;;6.40;;
1879;SDS011;49285;49.002;8.390;2023-04-20T03:02:45;7.93;;;6.27;;
1879;SDS011;49285;49.002;8.390;2023-04-20T03:05:10;8.90;;;7.07;;
1879;SDS011;49285;49.002;8.390;2023-04-20T03:07:37;7.33;;;6.53;;
1879;SDS011;49285;49.002;8.390;2023-04-20T03:10:02;6.50;;;5.80;;
1879;SDS011;49285;49.002;8.390;2023-04-20T03:12:28;9.17;;;6.27;;
1879;SDS011;49285;49.002;8.390;2023-04-20T03:14:55;7.40;;;6.53;;
1879;SDS011;49285;49.002;8.390;2023-04-20T03:17:21;9.77;;;6.97;;
1879;SDS011;49285;49.002;8.390;2023-04-20T03:19:47;8.80;;;6.90;;
1879;SDS011;49285;49.002;8.390;2023-04-20T03:22:12;10.03;;;6.30;;
1879;SDS011;49285;49.002;8.390;2023-04-20T03:24:38;7.43;;;6.73;;
1879;SDS011;49285;49.002;8.390;2023-04-20T03:27:03;7.70;;;6.77;;
1879;SDS011;49285;49.002;8.390;2023-04-20T03:29:29;8.70;;;6.53;;
1879;SDS011;49285;49.002;8.390;2023-04-20T03:31:54;8.40;;;6.70;;
1879;SDS011;49285;49.002;8.390;2023-04-20T03:34:20;8.83;;;6.60;;
1879;SDS011;49285;49.002;8.390;2023-04-20T03:36:46;8.43;;;6.70;;
1879;SDS011;49285;49.002;8.390;2023-04-20T03:39:11;8.03;;;6.50;;
1879;SDS011;49285;49.002;8.390;2023-04-20T03:41:37;7.73;;;6.40;;
1879;SDS011;49285;49.002;8.390;2023-04-20T03:44:02;9.67;;;6.80;;
1879;SDS011;49285;49.002;8.390;2023-04-20T03:46:28;9.83;;;7.03;;
1879;SDS011;49285;49.002;8.390;2023-04-20T03:48:54;8.37;;;5.90;;
1879;SDS011;49285;49.002;8.390;2023-04-20T03:51:19;9.27;;;6.03;;
1879;SDS011;49285;49.002;8.390;2023-04-20T03:53:45;8.30;;;7.50;;
1879;SDS011;49285;49.002;8.390;2023-04-20T03:56:10;7.33;;;6.40;;
1879;SDS011;49285;49.002;8.390;2023-04-20T03:58:36;8.60;;;6.70;;
1879;SDS011;49285;49.002;8.390;2023-04-20T04:01:05;13.77;;;6.63;;
1879;SDS011;49285;49.002;8.390;2023-04-20T04:03:34;7.70;;;6.40;;
1879;SDS011;49285;49.002;8.390;2023-04-20T04:06:01;11.83;;;7.10;;
1879;SDS011;49285;49.002;8.390;2023-04-20T04:08:27;9.30;;;6.67;;
1879;SDS011;49285;49.002;8.390;2023-04-20T04:10:53;7.90;;;6.60;;
1879;SDS011;49285;49.002;8.390;2023-04-20T04:13:19;8.73;;;7.37;;
1879;SDS011;49285;49.002;8.390;2023-04-20T04:15:44;9.53;;;7.10;;
1879;SDS011;49285;49.002;8.390;2023-04-20T04:18:10;9.77;;;6.57;;
1879;SDS011;49285;49.002;8.390;2023-04-20T04:20:35;10.63;;;6.70;;
1879;SDS011;49285;49.002;8.390;2023-04-20T04:23:01;8.60;;;7.00;;
1879;SDS011;49285;49.002;8.390;2023-04-20T04:25:26;9.00;;;8.00;;
1879;SDS011;49285;49.002;8.390;2023-04-20T04:27:53;9.43;;;6.50;;
1879;SDS011;49285;49.002;8.390;2023-04-20T04:30:19;9.30;;;7.50;;
1879;SDS011;49285;49.002;8.390;2023-04-20T04:32:44;8.30;;;6.90;;
1879;SDS011;49285;49.002;8.390;2023-04-20T04:35:10;8.30;;;7.47;;
1879;SDS011;49285;49.002;8.390;2023-04-20T04:37:37;7.60;;;6.37;;
1879;SDS011;49285;49.002;8.390;2023-04-20T04:40:03;8.30;;;6.50;;
1879;SDS011;49285;49.002;8.390;2023-04-20T04:42:32;7.80;;;6.77;;
1879;SDS011;49285;49.002;8.390;2023-04-20T04:44:59;8.20;;;6.77;;
1879;SDS011;49285;49.002;8.390;2023-04-20T04:47:26;8.57;;;6.63;;
1879;SDS011;49285;49.002;8.390;2023-04-20T04:49:53;7.93;;;6.60;;
1879;SDS011;49285;49.002;8.390;2023-04-20T04:52:19;11.50;;;6.30;;
1879;SDS011;49285;49.002;8.390;2023-04-20T04:54:45;7.17;;;6.47;;
1879;SDS011;49285;49.002;8.390;2023-04-20T04:57:11;9.93;;;7.10;;
1879;SDS011;49285;49.002;8.390;2023-04-20T04:59:36;9.67;;;6.67;;
1879;SDS011;49285;49.002;8.390;2023-04-20T05:02:02;8.53;;;6.93;;
1879;SDS011;49285;49.002;8.390;2023-04-20T05:04:27;10.53;;;8.30;;
1879;SDS011;49285;49.002;8.390;2023-04-20T05:06:53;8.90;;;7.43;;
1879;SDS011;49285;49.002;8.390;2023-04-20T05:09:18;7.90;;;6.90;;
1879;SDS011;49285;49.002;8.390;2023-04-20T05:11:44;8.30;;;6.77;;
1879;SDS011;49285;49.002;8.390;2023-04-20T05:14:10;7.60;;;6.40;;
1879;SDS011;49285;49.002;8.390;2023-04-20T05:16:35;7.60;;;6.80;;
1879;SDS011;49285;49.002;8.390;2023-04-20T05:19:01;7.23;;;6.30;;
1879;SDS011;49285;49.002;8.390;2023-04-20T05:21:27;7.70;;;6.17;;
1879;SDS011;49285;49.002;8.390;2023-04-20T05:23:53;9.03;;;6.13;;
1879;SDS011;49285;49.002;8.390;2023-04-20T05:26:19;9.13;;;6.50;;
1879;SDS011;49285;49.002;8.390;2023-04-20T05:28:44;9.17;;;6.73;;
1879;SDS011;49285;49.002;8.390;2023-04-20T05:31:10;7.90;;;6.40;;
1879;SDS011;49285;49.002;8.390;2023-04-20T05:33:35;8.40;;;6.37;;
1879;SDS011;49285;49.002;8.390;2023-04-20T05:36:01;6.83;;;6.03;;
1879;SDS011;49285;49.002;8.390;2023-04-20T05:38:26;9.47;;;7.30;;
1879;SDS011;49285;49.002;8.390;2023-04-20T05:40:52;10.40;;;6.57;;
1879;SDS011;49285;49.002;8.390;2023-04-20T05:43:17;8.53;;;6.90;;
1879;SDS011;49285;49.002;8.390;2023-04-20T05:45:43;9.80;;;7.10;;
1879;SDS011;49285;49.002;8.390;2023-04-20T05:48:10;8.40;;;6.57;;
1879;SDS011;49285;49.002;8.390;2023-04-20T05:50:36;8.57;;;6.20;;
1879;SDS011;49285;49.002;8.390;2023-04-20T05:53:01;7.80;;;6.77;;
1879;SDS011;49285;49.002;8.390;2023-04-20T05:55:27;12.17;;;6.77;;
1879;SDS011;49285;49.002;8.390;2023-04-20T05:57:52;7.87;;;6.77;;
1879;SDS011;49285;49.002;8.390;2023-04-20T06:00:18;8.87;;;7.97;;
1879;SDS011;49285;49.002;8.390;2023-04-20T06:02:45;8.03;;;6.70;;
1879;SDS011;49285;49.002;8.390;2023-04-20T06:05:10;8.20;;;6.93;;
1879;SDS011;49285;49.002;8.390;2023-04-20T06:07:36;7.70;;;7.00;;
1879;SDS011;49285;49.002;8.390;2023-04-20T06:10:02;8.27;;;7.00;;
1879;SDS011;49285;49.002;8.390;2023-04-20T06:12:29;8.97;;;7.27;;
1879;SDS011;49285;49.002;8.390;2023-04-20T06:14:55;7.67;;;6.40;;
1879;SDS011;49285;49.002;8.390;2023-04-20T06:17:21;10.73;;;7.17;;
1879;SDS011;49285;49.002;8.390;2023-04-20T06:19:47;8.33;;;7.00;;
1879;SDS011;49285;49.002;8.390;2023-04-20T06:22:12;8.53;;;7.63;;
1879;SDS011;49285;49.002;8.390;2023-04-20T06:24:40;7.30;;;6.30;;
1879;SDS011;49285;49.002;8.390;2023-04-20T06:27:06;8.93;;;7.03;;
1879;SDS011;49285;49.002;8.390;2023-04-20T06:29:32;7.90;;;6.63;;
1879;SDS011;49285;49.002;8.390;2023-04-20T06:31:58;12.30;;;7.00;;
1879;SDS011;49285;49.002;8.390;2023-04-20T06:34:23;7.67;;;6.43;;
1879;SDS011;49285;49.002;8.390;2023-04-20T06:36:49;7.93;;;6.53;;
1879;SDS011;49285;49.002;8.390;2023-04-20T06:39:15;8.37;;;6.80;;
1879;SDS011;49285;49.002;8.390;2023-04-20T06:41:41;10.20;;;6.70;;
1879;SDS011;49285;49.002;8.390;2023-04-20T06:44:07;7.47;;;6.70;;
1879;SDS011;49285;49.002;8.390;2023-04-20T06:46:33;11.77;;;6.90;;
1879;SDS011;49285;49.002;8.390;2023-04-20T06:48:59;9.13;;;6.60;;
1879;SDS011;49285;49.002;8.390;2023-04-20T06:51:24;10.83;;;7.50;;
1879;SDS011;49285;49.002;8.390;2023-04-20T06:53:51;8.90;;;7.60;;
1879;SDS011;49285;49.002;8.390;2023-04-20T06:56:17;8.73;;;7.77;;
1879;SDS011;49285;49.002;8.390;2023-04-20T06:58:42;8.30;;;6.90;;
1879;SDS011;49285;49.002;8.390;2023-04-20T07:01:08;9.40;;;6.50;;
1879;SDS011;49285;49.002;8.390;2023-04-20T07:03:33;10.53;;;7.40;;
1879;SDS011;49285;49.002;8.390;2023-04-20T07:05:59;7.77;;;6.90;;
1879;SDS011;49285;49.002;8.390;2023-04-20T07:08:25;8.00;;;6.67;;
1879;SDS011;49285;49.002;8.390;2023-04-20T07:10:50;8.07;;;6.43;;
1879;SDS011;49285;49.002;8.390;2023-04-20T07:13:16;11.40;;;8.57;;
1879;SDS011;49285;49.002;8.390;2023-04-20T07:15:43;9.17;;;7.63;;
1879;SDS011;49285;49.002;8.390;2023-04-20T07:18:10;8.40;;;6.57;;
1879;SDS011;49285;49.002;8.390;2023-04-20T07:20:35;8.80;;;7.73;;
1879;SDS011;49285;49.002;8.390;2023-04-20T07:23:01;10.77;;;8.07;;
1879;SDS011;49285;49.002;8.390;2023-04-20T07:25:27;9.47;;;6.80;;
1879;SDS011;49285;49.002;8.390;2023-04-20T07:27:55;8.50;;;7.60;;
1879;SDS011;49285;49.002;8.390;2023-04-20T07:30:21;9.40;;;7.83;;
1879;SDS011;49285;49.002;8.390;2023-04-20T07:32:47;13.23;;;8.83;;
1879;SDS011;49285;49.002;8.390;2023-04-20T07:35:13;12.80;;;9.07;;
1879;SDS011;49285;49.002;8.390;2023-04-20T07:37:39;9.27;;;7.53;;
1879;SDS011;49285;49.002;8.390;2023-04-20T07:40:04;10.60;;;7.57;;
1879;SDS011;49285;49.002;8.390;2023-04-20T07:42:31;11.93;;;8.60;;
1879;SDS011;49285;49.002;8.390;2023-04-20T07:44:58;8.77;;;7.70;;
1879;SDS011;49285;49.002;8.390;2023-04-20T07:47:23;9.53;;;7.67;;
1879;SDS011;49285;49.002;8.390;2023-04-20T07:49:49;8.40;;;7.50;;
1879;SDS011;49285;49.002;8.390;2023-04-20T07:52:15;9.47;;;7.10;;
1879;SDS011;49285;49.002;8.390;2023-04-20T07:54:42;12.70;;;8.30;;
1879;SDS011;49285;49.002;8.390;2023-04-20T07:57:08;8.10;;;7.30;;
1879;SDS011;49285;49.002;8.390;2023-04-20T07:59:33;8.10;;;7.30;;
1879;SDS011;49285;49.002;8.390;2023-04-20T08:02:00;13.60;;;8.10;;
1879;SDS011;49285;49.002;8.390;2023-04-20T08:04:26;9.20;;;7.60;;
1879;SDS011;49285;49.002;8.390;2023-04-20T08:06:52;11.00;;;7.70;;
1879;SDS011;49285;49.002;8.390;2023-04-20T08:09:17;11.27;;;7.77;;
1879;SDS011;49285;49.002;8.390;2023-04-20T08:11:43;9.03;;;7.00;;
1879;SDS011;49285;49.002;8.390;2023-04-20T08:14:10;8.70;;;6.93;;
1879;SDS011;49285;49.002;8.390;2023-04-20T08:16:36;8.60;;;7.73;;
1879;SDS011;49285;49.002;8.390;2023-04-20T08:19:02;11.23;;;7.77;;
1879;SDS011;49285;49.002;8.390;2023-04-20T08:21:34;10.47;;;7.20;;
1879;SDS011;49285;49.002;8.390;2023-04-20T08:24:00;9.23;;;7.83;;
1879;SDS011;49285;49.002;8.390;2023-04-20T08:26:26;12.57;;;9.00;;
1879;SDS011;49285;49.002;8.390;2023-04-20T08:28:51;9.40;;;7.93;;
1879;SDS011;49285;49.002;8.390;2023-04-20T08:31:17;8.30;;;7.27;;
1879;SDS011;49285;49.002;8.390;2023-04-20T08:33:42;8.57;;;6.80;;
1879;SDS011;49285;49.002;8.390;2023-04-20T08:36:08;9.50;;;7.83;;
1879;SDS011;49285;49.002;8.390;2023-04-20T08:38:34;7.67;;;6.93;;
1879;SDS011;49285;49.002;8.390;2023-04-20T08:41:00;12.57;;;8.35;;
1879;SDS011;49285;49.002;8.390;2023-04-20T08:43:26;8.37;;;7.20;;
1879;SDS011;49285;49.002;8.390;2023-04-20T08:45:51;9.10;;;7.80;;
1879;SDS011;49285;49.002;8.390;2023-04-20T08:48:21;8.70;;;7.47;;
1879;SDS011;49285;49.002;8.390;2023-04-20T08:50:49;13.97;;;7.73;;
1879;SDS011;49285;49.002;8.390;2023-04-20T08:53:15;8.23;;;7.37;;
1879;SDS011;49285;49.002;8.390;2023-04-20T08:55:41;9.63;;;8.30;;
1879;SDS011;49285;49.002;8.390;2023-04-20T08:58:06;7.93;;;7.20;;
1879;SDS011;49285;49.002;8.390;2023-04-20T09:00:32;7.70;;;6.90;;
1879;SDS011;49285;49.002;8.390;2023-04-20T09:02:57;8.83;;;7.30;;
1879;SDS011;49285;49.002;8.390;2023-04-20T09:05:25;9.30;;;7.37;;
1879;SDS011;49285;49.002;8.390;2023-04-20T09:07:58;9.43;;;8.20;;
1879;SDS011;49285;49.002;8.390;2023-04-20T09:10:26;9.03;;;8.10;;
1879;SDS011;49285;49.002;8.390;2023-04-20T09:13:07;11.30;;;9.77;;
1879;SDS011;49285;49.002;8.390;2023-04-20T09:15:33;8.80;;;7.90;;
1879;SDS011;49285;49.002;8.390;2023-04-20T09:18:09;8.33;;;7.43;;
1879;SDS011;49285;49.002;8.390;2023-04-20T09:20:36;8.60;;;7.43;;
1879;SDS011;49285;49.002;8.390;2023-04-20T09:23:15;9.97;;;8.07;;
1879;SDS011;49285;49.002;8.390;2023-04-20T09:25:42;9.47;;;7.53;;
1879;SDS011;49285;49.002;8.390;2023-04-20T09:28:10;7.63;;;6.90;;
1879;SDS011;49285;49.002;8.390;2023-04-20T09:33:05;9.00;;;8.10;;
1879;SDS011;49285;49.002;8.390;2023-04-20T09:35:33;12.10;;;9.43;;
1879;SDS011;49285;49.002;8.390;2023-04-20T09:37:59;16.80;;;12.40;;
1879;SDS011;49285;49.002;8.390;2023-04-20T09:40:24;10.13;;;8.83;;
1879;SDS011;49285;49.002;8.390;2023-04-20T09:42:52;10.60;;;9.33;;
1879;SDS011;49285;49.002;8.390;2023-04-20T09:45:19;9.93;;;8.93;;
1879;SDS011;49285;49.002;8.390;2023-04-20T09:47:46;8.00;;;7.17;;
1879;SDS011;49285;49.002;8.390;2023-04-20T09:50:13;9.40;;;7.93;;
1879;SDS011;49285;49.002;8.390;2023-04-20T09:52:40;9.63;;;7.70;;
1879;SDS011;49285;49.002;8.390;2023-04-20T09:55:07;11.53;;;8.40;;
1879;SDS011;49285;49.002;8.390;2023-04-20T09:57:35;9.00;;;8.20;;
1879;SDS011;49285;49.002;8.390;2023-04-20T10:00:02;9.73;;;8.30;;
1879;SDS011;49285;49.002;8.390;2023-04-20T10:02:30;9.80;;;8.20;;
1879;SDS011;49285;49.002;8.390;2023-04-20T10:04:57;10.77;;;8.37;;
1879;SDS011;49285;49.002;8.390;2023-04-20T10:07:27;9.17;;;8.27;;
1879;SDS011;49285;49.002;8.390;2023-04-20T10:10:14;8.73;;;7.83;;
1879;SDS011;49285;49.002;8.390;2023-04-20T10:12:50;8.60;;;7.70;;
1879;SDS011;49285;49.002;8.390;2023-04-20T10:15:38;8.17;;;7.37;;
1879;SDS011;49285;49.002;8.390;2023-04-20T10:18:21;9.37;;;8.47;;
1879;SDS011;49285;49.002;8.390;2023-04-20T10:20:48;9.37;;;8.47;;
1879;SDS011;49285;49.002;8.390;2023-04-20T10:23:15;10.23;;;9.13;;
1879;SDS011;49285;49.002;8.390;2023-04-20T10:25:42;8.93;;;8.03;;
1879;SDS011;49285;49.002;8.390;2023-04-20T10:28:22;9.27;;;8.37;;
1879;SDS011;49285;49.002;8.390;2023-04-20T10:30:52;8.77;;;7.93;;
1879;SDS011;49285;49.002;8.390;2023-04-20T10:33:18;9.40;;;8.37;;
1879;SDS011;49285;49.002;8.390;2023-04-20T10:35:46;10.03;;;8.70;;
1879;SDS011;49285;49.002;8.390;2023-04-20T10:38:34;10.40;;;8.20;;
1879;SDS011;49285;49.002;8.390;2023-04-20T10:43:32;9.00;;;8.00;;
1879;SDS011;49285;49.002;8.390;2023-04-20T10:45:59;9.07;;;8.17;;
1879;SDS011;49285;49.002;8.390;2023-04-20T10:48:25;9.67;;;8.60;;
1879;SDS011;49285;49.002;8.390;2023-04-20T10:50:50;12.57;;;8.97;;
1879;SDS011;49285;49.002;8.390;2023-04-20T10:53:22;9.57;;;8.60;;
1879;SDS011;49285;49.002;8.390;2023-04-20T10:55:58;10.23;;;9.23;;
1879;SDS011;49285;49.002;8.390;2023-04-20T10:58:24;9.00;;;8.10;;
1879;SDS011;49285;49.002;8.390;2023-04-20T11:00:59;9.73;;;8.73;;
1879;SDS011;49285;49.002;8.390;2023-04-20T11:03:27;9.60;;;8.60;;
1879;SDS011;49285;49.002;8.390;2023-04-20T11:05:53;10.60;;;9.50;;
1879;SDS011;49285;49.002;8.390;2023-04-20T11:08:19;10.27;;;9.07;;
1879;SDS011;49285;49.002;8.390;2023-04-20T11:10:44;9.80;;;8.80;;
1879;SDS011;49285;49.002;8.390;2023-04-20T11:13:21;16.77;;;8.93;;
1879;SDS011;49285;49.002;8.390;2023-04-20T11:15:49;11.00;;;8.90;;
1879;SDS011;49285;49.002;8.390;2023-04-20T11:18:15;9.07;;;8.17;;
1879;SDS011;49285;49.002;8.390;2023-04-20T11:20:51;9.47;;;7.97;;
1879;SDS011;49285;49.002;8.390;2023-04-20T11:23:21;9.90;;;8.60;;
1879;SDS011;49285;49.002;8.390;2023-04-20T11:25:53;9.53;;;8.60;;
1879;SDS011;49285;49.002;8.390;2023-04-20T11:28:19;11.60;;;8.47;;
1879;SDS011;49285;49.002;8.390;2023-04-20T11:30:45;9.93;;;7.57;;
1879;SDS011;49285;49.002;8.390;2023-04-20T11:33:11;9.13;;;8.23;;
1879;SDS011;49285;49.002;8.390;2023-04-20T11:35:39;10.67;;;9.50;;
1879;SDS011;49285;49.002;8.390;2023-04-20T11:38:05;9.10;;;8.20;;
1879;SDS011;49285;49.002;8.390;2023-04-20T11:40:32;9.80;;;8.30;;
1879;SDS011;49285;49.002;8.390;2023-04-20T11:42:58;10.50;;;8.03;;
1879;SDS011;49285;49.002;8.390;2023-04-20T11:45:24;9.53;;;8.63;;
1879;SDS011;49285;49.002;8.390;2023-04-20T11:47:52;9.77;;;8.23;;
1879;SDS011;49285;49.002;8.390;2023-04-20T11:50:19;10.07;;;9.17;;
1879;SDS011;49285;49.002;8.390;2023-04-20T11:52:45;9.73;;;8.73;;
1879;SDS011;49285;49.002;8.390;2023-04-20T11:55:11;9.53;;;8.60;;
1879;SDS011;49285;49.002;8.390;2023-04-20T11:57:37;10.00;;;7.90;;
1879;SDS011;49285;49.002;8.390;2023-04-20T12:00:03;8.80;;;7.90;;
1879;SDS011;49285;49.002;8.390;2023-04-20T12:02:30;11.13;;;8.77;;
1879;SDS011;49285;49.002;8.390;2023-04-20T12:04:56;9.57;;;8.57;;
1879;SDS011;49285;49.002;8.390;2023-04-20T12:07:21;10.60;;;8.20;;
1879;SDS011;49285;49.002;8.390;2023-04-20T12:09:47;8.30;;;7.50;;
1879;SDS011;49285;49.002;8.390;2023-04-20T12:12:13;8.30;;;7.27;;
1879;SDS011;49285;49.002;8.390;2023-04-20T12:14:38;8.87;;;7.97;;
1879;SDS011;49285;49.002;8.390;2023-04-20T12:17:04;9.10;;;8.20;;
1879;SDS011;49285;49.002;8.390;2023-04-20T12:19:30;8.17;;;7.40;;
1879;SDS011;49285;49.002;8.390;2023-04-20T12:21:56;8.80;;;7.00;;
1879;SDS011;49285;49.002;8.390;2023-04-20T12:24:21;9.67;;;7.30;;
1879;SDS011;49285;49.002;8.390;2023-04-20T12:26:47;11.27;;;8.10;;
1879;SDS011;49285;49.002;8.390;2023-04-20T12:29:13;9.50;;;8.00;;
1879;SDS011;49285;49.002;8.390;2023-04-20T12:31:38;9.77;;;8.30;;
1879;SDS011;49285;49.002;8.390;2023-04-20T12:34:04;13.50;;;9.70;;
1879;SDS011;49285;49.002;8.390;2023-04-20T12:36:30;9.37;;;8.37;;
1879;SDS011;49285;49.002;8.390;2023-04-20T12:38:56;11.60;;;7.57;;
1879;SDS011;49285;49.002;8.390;2023-04-20T12:41:22;9.17;;;8.20;;
1879;SDS011;49285;49.002;8.390;2023-04-20T12:43:48;8.70;;;7.47;;
1879;SDS011;49285;49.002;8.390;2023-04-20T12:46:14;10.37;;;8.00;;
1879;SDS011;49285;49.002;8.390;2023-04-20T12:48:40;9.30;;;8.43;;
1879;SDS011;49285;49.002;8.390;2023-04-20T12:51:06;8.83;;;8.03;;
1879;SDS011;49285;49.002;8.390;2023-04-20T12:53:32;12.87;;;9.50;;
1879;SDS011;49285;49.002;8.390;2023-04-20T12:55:57;10.03;;;8.53;;
1879;SDS011;49285;49.002;8.390;2023-04-20T12:58:23;8.20;;;7.40;;
1879;SDS011;49285;49.002;8.390;2023-04-20T13:00:49;7.80;;;6.27;;
1879;SDS011;49285;49.002;8.390;2023-04-20T13:03:14;7.10;;;6.40;;
1879;SDS011;49285;49.002;8.390;2023-04-20T13:05:40;6.30;;;5.70;;
1879;SDS011;49285;49.002;8.390;2023-04-20T13:08:08;6.73;;;5.40;;
1879;SDS011;49285;49.002;8.390;2023-04-20T13:10:34;6.17;;;5.33;;
1879;SDS011;49285;49.002;8.390;2023-04-20T13:13:00;6.50;;;5.90;;
1879;SDS011;49285;49.002;8.390;2023-04-20T13:15:26;5.80;;;5.30;;
1879;SDS011;49285;49.002;8.390;2023-04-20T13:17:52;7.33;;;6.20;;
1879;SDS011;49285;49.002;8.390;2023-04-20T13:20:18;6.53;;;5.93;;
1879;SDS011;49285;49.002;8.390;2023-04-20T13:22:44;7.10;;;6.50;;
1879;SDS011;49285;49.002;8.390;2023-04-20T13:25:10;10.00;;;6.03;;
1879;SDS011;49285;49.002;8.390;2023-04-20T13:27:36;6.67;;;6.07;;
1879;SDS011;49285;49.002;8.390;2023-04-20T13:30:02;7.43;;;6.73;;
1879;SDS011;49285;49.002;8.390;2023-04-20T13:32:30;6.40;;;5.80;;
1879;SDS011;49285;49.002;8.390;2023-04-20T13:34:56;7.20;;;6.47;;
1879;SDS011;49285;49.002;8.390;2023-04-20T13:37:22;6.60;;;5.90;;
1879;SDS011;49285;49.002;8.390;2023-04-20T13:39:48;7.40;;;6.67;;
1879;SDS011;49285;49.002;8.390;2023-04-20T13:42:14;7.70;;;6.20;;
1879;SDS011;49285;49.002;8.390;2023-04-20T13:44:39;8.70;;;6.83;;
1879;SDS011;49285;49.002;8.390;2023-04-20T13:47:05;11.10;;;7.10;;
1879;SDS011;49285;49.002;8.390;2023-04-20T13:49:30;7.40;;;6.70;;
1879;SDS011;49285;49.002;8.390;2023-04-20T13:51:56;8.80;;;6.90;;
1879;SDS011;49285;49.002;8.390;2023-04-20T13:54:22;9.53;;;6.93;;
1879;SDS011;49285;49.002;8.390;2023-04-20T13:56:47;8.77;;;7.73;;
1879;SDS011;49285;49.002;8.390;2023-04-20T13:59:13;9.33;;;8.27;;
1879;SDS011;49285;49.002;8.390;2023-04-20T14:01:39;8.23;;;7.43;;
1879;SDS011;49285;49.002;8.390;2023-04-20T14:04:05;13.37;;;8.80;;
1879;SDS011;49285;49.002;8.390;2023-04-20T14:06:32;10.33;;;8.60;;
1879;SDS011;49285;49.002;8.390;2023-04-20T14:08:57;9.73;;;8.73;;
1879;SDS011;49285;49.002;8.390;2023-04-20T14:11:23;10.13;;;8.07;;
1879;SDS011;49285;49.002;8.390;2023-04-20T14:13:49;9.50;;;7.73;;
1879;SDS011;49285;49.002;8.390;2023-04-20T14:16:15;9.13;;;8.23;;
1879;SDS011;49285;49.002;8.390;2023-04-20T14:18:41;8.87;;;7.97;;
1879;SDS011;49285;49.002;8.390;2023-04-20T14:21:07;8.40;;;7.60;;
1879;SDS011;49285;49.002;8.390;2023-04-20T14:23:32;9.40;;;8.23;;
1879;SDS011;49285;49.002;8.390;2023-04-20T14:25:58;9.83;;;8.83;;
1879;SDS011;49285;49.002;8.390;2023-04-20T14:28:23;8.53;;;7.73;;
1879;SDS011;49285;49.002;8.390;2023-04-20T14:30:49;9.13;;;8.20;;
1879;SDS011;49285;49.002;8.390;2023-04-20T14:33:17;14.10;;;9.00;;
1879;SDS011;49285;49.002;8.390;2023-04-20T14:35:43;10.77;;;8.77;;
1879;SDS011;49285;49.002;8.390;2023-04-20T14:38:10;9.80;;;8.43;;
1879;SDS011;49285;49.002;8.390;2023-04-20T14:40:35;9.00;;;7.80;;
1879;SDS011;49285;49.002;8.390;2023-04-20T14:43:01;11.10;;;8.60;;
1879;SDS011;49285;49.002;8.390;2023-04-20T14:45:27;11.13;;;8.73;;
1879;SDS011;49285;49.002;8.390;2023-04-20T14:47:53;10.60;;;8.67;;
1879;SDS011;49285;49.002;8.390;2023-04-20T14:50:23;11.33;;;8.43;;
1879;SDS011;49285;49.002;8.390;2023-04-20T14:52:51;8.20;;;7.50;;
1879;SDS011;49285;49.002;8.390;2023-04-20T14:55:17;8.77;;;7.93;;
1879;SDS011;49285;49.002;8.390;2023-04-20T14:57:47;9.43;;;8.47;;